This is the latest recevied weather packets stored in our database for station/object KE0TNI-13. If no packets are shown the sender has not sent any weather packets the latest 10 day(s).
| Time | Temp. | Humidity | Pressure | Rain* | Wind** | Luminosity | Snow |
|---|---|---|---|---|---|---|---|
| 1777745129 | 12.22° C | 25% | 1025.7 hPa | 0 mm | - | 993 W/m² | - |
| 1777744826 | 11.67° C | 28% | 1025.4 hPa | 0 mm | - | 989 W/m² | - |
| 1777744520 | 11.11° C | 34% | 1025.7 hPa | 0 mm | - | 980 W/m² | - |
| 1777744216 | 11.11° C | 25% | 1025.4 hPa | 0 mm | - | 971 W/m² | - |
| 1777743307 | 11.11° C | 30% | 1025.8 hPa | 0 mm | - | 951 W/m² | - |
| 1777742398 | 10.56° C | 29% | 1025.7 hPa | 0 mm | - | 920 W/m² | - |
| 1777741792 | 10.56° C | 27% | 1025.8 hPa | 0 mm | - | 898 W/m² | - |
| 1777739971 | 8.33° C | 28% | 1025.8 hPa | 0 mm | - | 367 W/m² | - |
| 1777739365 | 7.78° C | 29% | 1025.7 hPa | 0 mm | - | 259 W/m² | - |
| 1777738759 | 7.22° C | 33% | 1026.1 hPa | 0 mm | - | 37 W/m² | - |
| 1777738153 | 6.67° C | 30% | 1025.9 hPa | 0 mm | - | 35 W/m² | - |
| 1777737248 | 6.11° C | 34% | 1026.2 hPa | 0 mm | - | 34 W/m² | - |
| 1777736943 | 6.11° C | 29% | 1026.2 hPa | 0 mm | - | 33 W/m² | - |
| 1777736031 | 5.56° C | 36% | 1025.9 hPa | 0 mm | - | 32 W/m² | - |
| 1777735728 | 5.56° C | 38% | 1026.1 hPa | 0 mm | - | 31 W/m² | - |
| 1777735426 | 5.56° C | 33% | 1025.9 hPa | 0 mm | - | 34 W/m² | - |
| 1777735123 | 5.56° C | 31% | 1026.2 hPa | 0 mm | - | 38 W/m² | - |
| 1777734820 | 5.56° C | 33% | 1026.3 hPa | 0 mm | - | 30 W/m² | - |
| 1777734517 | 5.56° C | 34% | 1026.3 hPa | 0 mm | - | 36 W/m² | - |
| 1777733910 | 5° C | 34% | 1026.2 hPa | 0 mm | - | 296 W/m² | - |
| 1777732696 | 3.33° C | 44% | 1026.3 hPa | 0 mm | - | 99 W/m² | - |
| 1777732393 | 3.33° C | 41% | 1026.1 hPa | 0 mm | - | 28 W/m² | - |
| 1777732091 | 2.78° C | 40% | 1026.1 hPa | 0 mm | - | 28 W/m² | - |
| 1777731788 | 2.78° C | 40% | 1026.2 hPa | 0 mm | - | 27 W/m² | - |
| 1777731485 | 2.78° C | 42% | 1026.1 hPa | 0 mm | - | 27 W/m² | - |
* Rain latest hour (hover to see other rain measurements)
** Current wind speed in m/s (hover to see current wind gust speed)